createdAt,value
2019-06-20T00:00:16.139Z,997.95
2019-06-20T00:01:16.106Z,997.95
2019-06-20T00:02:16.176Z,997.98
2019-06-20T00:03:16.238Z,998.02
2019-06-20T00:04:16.156Z,998.05
2019-06-20T00:05:16.157Z,998.02
2019-06-20T00:06:16.228Z,998.04
2019-06-20T00:07:16.231Z,998.04
2019-06-20T00:08:16.159Z,998.04
2019-06-20T00:09:16.159Z,998.03
2019-06-20T00:10:16.238Z,998.05
2019-06-20T00:11:16.163Z,998.06
2019-06-20T00:12:16.181Z,998.08
2019-06-20T00:13:16.156Z,998.10
2019-06-20T00:14:16.227Z,998.09
2019-06-20T00:15:16.230Z,998.12
2019-06-20T00:16:16.159Z,998.13
2019-06-20T00:17:16.155Z,998.17
2019-06-20T00:18:16.230Z,998.20
2019-06-20T00:19:16.164Z,998.22
2019-06-20T00:20:16.186Z,998.28
2019-06-20T00:21:16.180Z,998.29
2019-06-20T00:22:16.231Z,998.27
2019-06-20T00:23:16.168Z,998.32
2019-06-20T00:24:16.175Z,998.31
2019-06-20T00:25:16.233Z,998.25
2019-06-20T00:26:16.306Z,998.26
2019-06-20T00:27:16.238Z,998.27
2019-06-20T00:28:16.190Z,998.20
2019-06-20T00:29:16.236Z,998.21
2019-06-20T00:30:16.171Z,998.21
2019-06-20T00:31:16.242Z,998.17
2019-06-20T00:32:16.178Z,998.18
2019-06-20T00:33:16.254Z,998.14
2019-06-20T00:34:16.180Z,998.10
2019-06-20T00:35:16.180Z,998.09
2019-06-20T00:36:16.193Z,998.08
2019-06-20T00:37:16.188Z,998.02
2019-06-20T00:38:16.215Z,998.04
2019-06-20T00:39:16.192Z,998.04
2019-06-20T00:40:16.320Z,998.08
2019-06-20T00:41:16.192Z,998.05
2019-06-20T00:42:16.264Z,998.05
2019-06-20T00:43:18.222Z,998.05
2019-06-20T00:44:16.185Z,998.02
2019-06-20T00:45:16.279Z,997.98
2019-06-20T00:46:16.256Z,998.00
2019-06-20T00:47:16.263Z,997.98
2019-06-20T00:48:16.287Z,997.97
2019-06-20T00:49:16.199Z,997.95
2019-06-20T00:50:16.266Z,997.92
2019-06-20T00:51:16.206Z,997.85
2019-06-20T00:52:16.260Z,997.84
2019-06-20T00:53:16.272Z,997.83
2019-06-20T00:54:16.379Z,997.86
2019-06-20T00:55:16.274Z,997.89
2019-06-20T00:56:16.319Z,997.93
2019-06-20T00:57:16.310Z,997.93
2019-06-20T00:58:16.206Z,997.90
2019-06-20T00:59:16.234Z,997.85
2019-06-20T01:00:16.202Z,997.85
2019-06-20T01:01:16.209Z,997.84
2019-06-20T01:02:16.274Z,997.88
2019-06-20T01:03:16.285Z,997.92
2019-06-20T01:04:16.208Z,997.90
2019-06-20T01:05:16.345Z,997.95
2019-06-20T01:06:16.208Z,997.87
2019-06-20T01:07:16.271Z,997.90
2019-06-20T01:08:16.275Z,997.91
2019-06-20T01:09:16.219Z,997.90
2019-06-20T01:10:16.211Z,997.92
2019-06-20T01:11:16.301Z,997.90
2019-06-20T01:12:16.282Z,997.85
2019-06-20T01:13:32.263Z,997.84
2019-06-20T01:14:16.394Z,997.81
2019-06-20T01:15:16.211Z,997.79
2019-06-20T01:16:16.218Z,997.82
2019-06-20T01:17:16.277Z,997.81
2019-06-20T01:18:16.279Z,997.83
2019-06-20T01:19:16.232Z,997.79
2019-06-20T01:20:16.214Z,997.85
2019-06-20T01:21:16.222Z,997.86
2019-06-20T01:22:16.288Z,997.88
2019-06-20T01:23:16.294Z,997.92
2019-06-20T01:24:16.354Z,997.96
2019-06-20T01:25:16.221Z,997.93
2019-06-20T01:26:16.290Z,997.94
2019-06-20T01:27:16.294Z,997.94
2019-06-20T01:28:16.315Z,997.96
2019-06-20T01:29:16.227Z,997.96
2019-06-20T01:30:16.221Z,997.93
2019-06-20T01:31:16.303Z,997.91
2019-06-20T01:32:16.302Z,997.92
2019-06-20T01:33:16.297Z,997.91
2019-06-20T01:34:16.210Z,997.93
2019-06-20T01:35:16.289Z,997.89
2019-06-20T01:36:16.238Z,997.84
2019-06-20T01:37:16.290Z,997.85
2019-06-20T01:38:16.220Z,997.91
2019-06-20T01:39:16.281Z,997.90
2019-06-20T01:40:16.289Z,997.85
2019-06-20T01:41:16.319Z,997.85
2019-06-20T01:42:16.224Z,997.90
2019-06-20T01:43:16.216Z,997.95
2019-06-20T01:44:16.288Z,997.98
2019-06-20T01:45:16.194Z,997.96
2019-06-20T01:46:16.228Z,997.96
2019-06-20T01:47:16.262Z,997.97
2019-06-20T01:48:16.218Z,998.00
2019-06-20T01:49:16.290Z,998.04
2019-06-20T01:50:16.251Z,998.00
2019-06-20T01:51:16.203Z,998.01
2019-06-20T01:52:16.301Z,998.00
2019-06-20T01:53:16.227Z,998.01
2019-06-20T01:54:16.210Z,997.96
2019-06-20T01:55:16.258Z,997.96
2019-06-20T01:56:16.316Z,998.00
2019-06-20T01:57:16.236Z,997.99
2019-06-20T01:58:16.317Z,997.96
2019-06-20T01:59:16.234Z,997.98
2019-06-20T02:00:16.324Z,997.96
2019-06-20T02:01:16.238Z,997.92
2019-06-20T02:02:16.315Z,997.90
2019-06-20T02:03:16.236Z,997.89
2019-06-20T02:04:16.322Z,997.87
2019-06-20T02:05:16.249Z,997.87
2019-06-20T02:06:16.248Z,997.88
2019-06-20T02:07:16.322Z,997.90
2019-06-20T02:08:16.258Z,997.97
2019-06-20T02:09:16.253Z,998.01
2019-06-20T02:10:16.255Z,998.06
2019-06-20T02:11:16.271Z,998.03
2019-06-20T02:12:16.331Z,998.04
2019-06-20T02:13:16.327Z,998.06
2019-06-20T02:14:16.314Z,998.06
2019-06-20T02:15:16.286Z,998.05
2019-06-20T02:16:16.221Z,998.08
2019-06-20T02:17:16.268Z,998.10
2019-06-20T02:18:16.318Z,998.07
2019-06-20T02:19:16.195Z,998.03
2019-06-20T02:20:16.262Z,998.03
2019-06-20T02:21:16.253Z,998.07
2019-06-20T02:22:16.301Z,998.02
2019-06-20T02:23:16.253Z,998.05
2019-06-20T02:24:16.344Z,998.04
2019-06-20T02:25:16.265Z,998.11
2019-06-20T02:26:16.339Z,998.13
2019-06-20T02:27:16.282Z,998.12
2019-06-20T02:28:16.331Z,998.13
2019-06-20T02:29:16.287Z,998.10
2019-06-20T02:30:16.305Z,998.08
2019-06-20T02:31:16.296Z,998.12
2019-06-20T02:32:16.271Z,998.11
2019-06-20T02:33:16.295Z,998.11
2019-06-20T02:34:16.262Z,998.13
2019-06-20T02:35:16.344Z,998.13
2019-06-20T02:36:16.341Z,998.12
2019-06-20T02:37:16.278Z,998.13
2019-06-20T02:38:16.336Z,998.10
2019-06-20T02:39:16.352Z,998.11
2019-06-20T02:40:16.339Z,998.10
2019-06-20T02:41:16.347Z,998.10
2019-06-20T02:42:16.344Z,998.09
2019-06-20T02:43:16.345Z,998.11
2019-06-20T02:44:29.240Z,998.13
2019-06-20T02:45:16.346Z,998.13
2019-06-20T02:46:16.234Z,998.17
2019-06-20T02:47:16.355Z,998.18
2019-06-20T02:48:16.330Z,998.20
2019-06-20T02:49:16.330Z,998.18
2019-06-20T02:50:16.349Z,998.18
2019-06-20T02:51:16.246Z,998.20
2019-06-20T02:52:16.350Z,998.24
2019-06-20T02:53:16.310Z,998.17
2019-06-20T02:54:16.290Z,998.18
2019-06-20T02:55:16.382Z,998.19
2019-06-20T02:56:16.363Z,998.24
2019-06-20T02:57:16.364Z,998.24
2019-06-20T02:58:16.382Z,998.24
2019-06-20T02:59:16.293Z,998.26
2019-06-20T03:00:16.389Z,998.25
2019-06-20T03:01:16.299Z,998.28
2019-06-20T03:02:16.305Z,998.26
2019-06-20T03:03:16.295Z,998.26
2019-06-20T03:04:16.285Z,998.34
2019-06-20T03:05:16.296Z,998.26
2019-06-20T03:06:16.355Z,998.32
2019-06-20T03:07:16.355Z,998.30
2019-06-20T03:08:16.285Z,998.31
2019-06-20T03:09:16.358Z,998.32
2019-06-20T03:10:16.291Z,998.31
2019-06-20T03:11:16.368Z,998.33
2019-06-20T03:12:16.292Z,998.34
2019-06-20T03:13:16.367Z,998.36
2019-06-20T03:14:16.297Z,998.40
2019-06-20T03:15:16.370Z,998.43
2019-06-20T03:16:16.298Z,998.42
2019-06-20T03:17:16.301Z,998.40
2019-06-20T03:18:16.364Z,998.45
2019-06-20T03:19:16.427Z,998.44
2019-06-20T03:20:16.298Z,998.50
2019-06-20T03:21:16.388Z,998.50
2019-06-20T03:22:16.371Z,998.51
2019-06-20T03:23:16.300Z,998.54
2019-06-20T03:24:16.370Z,998.55
2019-06-20T03:25:16.376Z,998.56
2019-06-20T03:26:16.298Z,998.60
2019-06-20T03:27:16.371Z,998.58
2019-06-20T03:28:16.303Z,998.62
2019-06-20T03:29:16.373Z,998.59
2019-06-20T03:30:16.307Z,998.59
2019-06-20T03:31:16.399Z,998.59
2019-06-20T03:32:16.302Z,998.60
2019-06-20T03:33:16.310Z,998.55
2019-06-20T03:34:16.250Z,998.57
2019-06-20T03:35:16.249Z,998.60
2019-06-20T03:36:16.317Z,998.58
2019-06-20T03:37:16.266Z,998.62
2019-06-20T03:38:16.249Z,998.63
2019-06-20T03:39:16.331Z,998.67
2019-06-20T03:40:16.317Z,998.67
2019-06-20T03:41:16.327Z,998.69
2019-06-20T03:42:16.309Z,998.71
2019-06-20T03:43:16.296Z,998.71
2019-06-20T03:44:16.309Z,998.73
2019-06-20T03:45:16.349Z,998.74
2019-06-20T03:46:16.285Z,998.75
2019-06-20T03:47:16.325Z,998.77
2019-06-20T03:48:16.294Z,998.79
2019-06-20T03:49:16.320Z,998.79
2019-06-20T03:50:16.273Z,998.84
2019-06-20T03:51:16.328Z,998.84
2019-06-20T03:52:16.417Z,998.85
2019-06-20T03:53:16.288Z,998.84
2019-06-20T03:54:16.298Z,998.81
2019-06-20T03:55:16.330Z,998.84
2019-06-20T03:56:16.383Z,998.85
2019-06-20T03:57:16.358Z,998.85
2019-06-20T03:58:16.392Z,998.91
2019-06-20T03:59:16.292Z,998.88
2019-06-20T04:00:16.394Z,998.87
2019-06-20T04:01:16.333Z,998.87
2019-06-20T04:02:16.344Z,998.86
2019-06-20T04:03:16.385Z,998.88
2019-06-20T04:04:16.371Z,998.86
2019-06-20T04:05:16.339Z,998.90
2019-06-20T04:06:16.345Z,998.91
2019-06-20T04:07:16.345Z,998.91
2019-06-20T04:08:16.416Z,998.93
2019-06-20T04:09:16.412Z,998.93
2019-06-20T04:10:16.414Z,998.91
2019-06-20T04:11:16.349Z,998.94
2019-06-20T04:12:16.347Z,998.98
2019-06-20T04:13:16.399Z,998.96
2019-06-20T04:14:16.380Z,998.98
2019-06-20T04:15:19.373Z,998.99
2019-06-20T04:16:16.303Z,999.04
2019-06-20T04:17:16.284Z,999.09
2019-06-20T04:18:16.412Z,999.05
2019-06-20T04:19:16.311Z,999.08
2019-06-20T04:20:16.287Z,999.10
2019-06-20T04:21:16.310Z,999.09
2019-06-20T04:22:16.409Z,999.14
2019-06-20T04:23:16.384Z,999.16
2019-06-20T04:24:16.422Z,999.13
2019-06-20T04:25:16.442Z,999.14
2019-06-20T04:26:16.358Z,999.17
2019-06-20T04:27:16.432Z,999.15
2019-06-20T04:28:16.427Z,999.14
2019-06-20T04:29:16.428Z,999.18
2019-06-20T04:30:16.354Z,999.19
2019-06-20T04:31:16.369Z,999.19
2019-06-20T04:32:16.434Z,999.17
2019-06-20T04:33:16.361Z,999.17
2019-06-20T04:34:16.282Z,999.17
2019-06-20T04:35:16.370Z,999.14
2019-06-20T04:36:16.356Z,999.18
2019-06-20T04:37:16.290Z,999.20
2019-06-20T04:38:16.421Z,999.19
2019-06-20T04:39:19.491Z,999.22
2019-06-20T04:40:16.353Z,999.23
2019-06-20T04:41:16.322Z,999.24
2019-06-20T04:42:18.601Z,999.26
2019-06-20T04:43:16.356Z,999.30
2019-06-20T04:44:16.340Z,999.33
2019-06-20T04:45:16.373Z,999.32
2019-06-20T04:46:16.430Z,999.32
2019-06-20T04:47:16.364Z,999.33
2019-06-20T04:48:16.356Z,999.35
2019-06-20T04:49:19.631Z,999.32
2019-06-20T04:50:16.362Z,999.33
2019-06-20T04:51:16.441Z,999.32
2019-06-20T04:52:16.429Z,999.33
2019-06-20T04:53:16.358Z,999.32
2019-06-20T04:54:16.452Z,999.37
2019-06-20T04:55:16.456Z,999.40
2019-06-20T04:56:16.452Z,999.38
2019-06-20T04:57:16.384Z,999.38
2019-06-20T04:58:16.447Z,999.37
2019-06-20T04:59:16.453Z,999.35
2019-06-20T05:00:16.375Z,999.37
2019-06-20T05:01:16.451Z,999.35
2019-06-20T05:02:16.451Z,999.38
2019-06-20T05:03:16.383Z,999.36
2019-06-20T05:04:16.390Z,999.37
2019-06-20T05:05:16.354Z,999.33
2019-06-20T05:06:16.388Z,999.36
2019-06-20T05:07:16.391Z,999.35
2019-06-20T05:08:16.392Z,999.31
2019-06-20T05:09:16.406Z,999.36
2019-06-20T05:10:16.463Z,999.32
2019-06-20T05:11:16.470Z,999.29
2019-06-20T05:12:16.467Z,999.30
2019-06-20T05:13:16.399Z,999.34
2019-06-20T05:14:16.518Z,999.34
2019-06-20T05:15:16.322Z,999.40
2019-06-20T05:16:16.432Z,999.37
2019-06-20T05:17:16.410Z,999.37
2019-06-20T05:18:16.390Z,999.39
2019-06-20T05:19:16.554Z,999.40
2019-06-20T05:20:16.398Z,999.38
2019-06-20T05:21:16.330Z,999.43
2019-06-20T05:22:16.425Z,999.41
2019-06-20T05:23:16.327Z,999.46
2019-06-20T05:24:16.491Z,999.43
2019-06-20T05:25:16.478Z,999.43
2019-06-20T05:26:16.406Z,999.45
2019-06-20T05:27:16.471Z,999.42
2019-06-20T05:28:16.472Z,999.40
2019-06-20T05:29:16.452Z,999.42
2019-06-20T05:30:16.403Z,999.42
2019-06-20T05:31:16.409Z,999.45
2019-06-20T05:32:16.527Z,999.41
2019-06-20T05:33:16.475Z,999.42
2019-06-20T05:34:16.462Z,999.42
2019-06-20T05:35:16.459Z,999.45
2019-06-20T05:36:16.412Z,999.43
2019-06-20T05:37:16.507Z,999.40
2019-06-20T05:38:16.408Z,999.42
2019-06-20T05:39:16.486Z,999.47
2019-06-20T05:40:16.471Z,999.46
2019-06-20T05:41:16.394Z,999.45
2019-06-20T05:42:16.409Z,999.45
2019-06-20T05:43:16.354Z,999.46
2019-06-20T05:44:16.491Z,999.46
2019-06-20T05:45:16.433Z,999.51
2019-06-20T05:46:16.424Z,999.49
2019-06-20T05:47:16.495Z,999.45
2019-06-20T05:48:16.419Z,999.50
2019-06-20T05:49:16.492Z,999.42
2019-06-20T05:50:16.425Z,999.45
2019-06-20T05:51:16.435Z,999.44
2019-06-20T05:52:17.368Z,999.46
2019-06-20T05:53:16.503Z,999.45
2019-06-20T05:54:16.427Z,999.48
2019-06-20T05:55:16.503Z,999.52
2019-06-20T05:56:16.423Z,999.48
2019-06-20T05:57:16.437Z,999.49
2019-06-20T05:58:16.423Z,999.48
2019-06-20T05:59:16.523Z,999.48
2019-06-20T06:00:16.430Z,999.47
2019-06-20T06:01:16.442Z,999.44
2019-06-20T06:02:16.453Z,999.40
2019-06-20T06:03:16.509Z,999.44
2019-06-20T06:04:16.366Z,999.43
2019-06-20T06:05:16.496Z,999.43
2019-06-20T06:06:16.430Z,999.43
2019-06-20T06:07:16.428Z,999.42
2019-06-20T06:08:16.543Z,999.42
2019-06-20T06:09:16.463Z,999.44
2019-06-20T06:10:16.499Z,999.43
2019-06-20T06:11:16.714Z,999.46
2019-06-20T06:12:16.464Z,999.46
2019-06-20T06:13:16.490Z,999.48
2019-06-20T06:14:16.410Z,999.53
2019-06-20T06:15:16.427Z,999.50
2019-06-20T06:16:25.691Z,999.52
2019-06-20T06:17:16.430Z,999.46
2019-06-20T06:18:16.469Z,999.44
2019-06-20T06:19:16.505Z,999.48
2019-06-20T06:20:16.503Z,999.43
2019-06-20T06:21:16.505Z,999.45
2019-06-20T06:22:16.415Z,999.51
2019-06-20T06:23:16.497Z,999.50
2019-06-20T06:24:16.385Z,999.47
2019-06-20T06:25:16.456Z,999.49
2019-06-20T06:26:16.500Z,999.49
2019-06-20T06:27:16.444Z,999.48
2019-06-20T06:28:16.534Z,999.51
2019-06-20T06:29:16.437Z,999.49
2019-06-20T06:30:16.454Z,999.52
2019-06-20T06:31:16.452Z,999.53
2019-06-20T06:32:20.018Z,999.52
2019-06-20T06:33:16.396Z,999.52
2019-06-20T06:34:16.534Z,999.52
2019-06-20T06:35:16.521Z,999.52
2019-06-20T06:36:16.533Z,999.54
2019-06-20T06:37:16.530Z,999.50
2019-06-20T06:38:22.045Z,999.51
2019-06-20T06:39:16.528Z,999.51
2019-06-20T06:40:16.543Z,999.53
2019-06-20T06:41:16.498Z,999.52
2019-06-20T06:42:16.534Z,999.52
2019-06-20T06:43:16.466Z,999.49
2019-06-20T06:44:16.492Z,999.50
2019-06-20T06:45:16.398Z,999.51
2019-06-20T06:46:16.524Z,999.51
2019-06-20T06:47:16.451Z,999.52
2019-06-20T06:48:16.522Z,999.51
2019-06-20T06:49:16.482Z,999.53
2019-06-20T06:50:16.543Z,999.60
2019-06-20T06:51:16.513Z,999.59
2019-06-20T06:52:16.471Z,999.58
2019-06-20T06:53:16.427Z,999.58
2019-06-20T06:54:16.515Z,999.59
2019-06-20T06:55:16.443Z,999.62
2019-06-20T06:56:16.470Z,999.63
2019-06-20T06:57:16.532Z,999.60
2019-06-20T06:58:16.535Z,999.64
2019-06-20T06:59:16.531Z,999.62
2019-06-20T07:00:16.474Z,999.59
2019-06-20T07:01:16.612Z,999.60
2019-06-20T07:02:16.476Z,999.61
2019-06-20T07:03:16.534Z,999.59
2019-06-20T07:04:16.464Z,999.65
2019-06-20T07:05:16.449Z,999.63
2019-06-20T07:06:16.417Z,999.68
2019-06-20T07:07:16.466Z,999.69
2019-06-20T07:08:16.507Z,999.70
2019-06-20T07:09:16.473Z,999.68
2019-06-20T07:10:16.450Z,999.69
2019-06-20T07:11:16.469Z,999.72
2019-06-20T07:12:16.481Z,999.69
2019-06-20T07:13:16.471Z,999.72
2019-06-20T07:14:16.620Z,999.72
2019-06-20T07:15:16.477Z,999.73
2019-06-20T07:16:16.572Z,999.76
2019-06-20T07:17:16.553Z,999.77
2019-06-20T07:18:16.472Z,999.75
2019-06-20T07:19:16.481Z,999.78
2019-06-20T07:20:16.492Z,999.79
2019-06-20T07:21:16.481Z,999.78
2019-06-20T07:22:16.500Z,999.77
2019-06-20T07:23:16.734Z,999.75
2019-06-20T07:24:16.548Z,999.79
2019-06-20T07:25:16.504Z,999.72
2019-06-20T07:26:16.563Z,999.72
2019-06-20T07:27:16.500Z,999.72
2019-06-20T07:28:16.493Z,999.71
2019-06-20T07:29:16.567Z,999.72
2019-06-20T07:30:16.557Z,999.73
2019-06-20T07:31:16.569Z,999.74
2019-06-20T07:32:16.570Z,999.72
2019-06-20T07:33:16.512Z,999.76
2019-06-20T07:34:16.515Z,999.77
2019-06-20T07:35:16.569Z,999.76
2019-06-20T07:36:16.569Z,999.77
2019-06-20T07:37:16.571Z,999.79
2019-06-20T07:38:16.505Z,999.77
2019-06-20T07:39:16.577Z,999.72
2019-06-20T07:40:16.571Z,999.70
2019-06-20T07:41:16.572Z,999.73
2019-06-20T07:42:16.551Z,999.73
2019-06-20T07:43:16.604Z,999.71
2019-06-20T07:44:16.577Z,999.67
2019-06-20T07:45:16.511Z,999.64
2019-06-20T07:46:16.566Z,999.66
2019-06-20T07:47:17.834Z,999.63
2019-06-20T07:48:16.498Z,999.66
2019-06-20T07:49:16.588Z,999.71
2019-06-20T07:50:16.603Z,999.68
2019-06-20T07:51:16.589Z,999.68
2019-06-20T07:52:16.497Z,999.69
2019-06-20T07:53:16.506Z,999.71
2019-06-20T07:54:16.576Z,999.71
2019-06-20T07:55:16.515Z,999.78
2019-06-20T07:56:16.618Z,999.69
2019-06-20T07:57:16.584Z,999.73
2019-06-20T07:58:16.545Z,999.75
2019-06-20T07:59:16.591Z,999.76
2019-06-20T08:00:16.608Z,999.77
2019-06-20T08:01:16.540Z,999.82
2019-06-20T08:02:16.530Z,999.80
2019-06-20T08:03:16.572Z,999.81
2019-06-20T08:04:16.531Z,999.81
2019-06-20T08:05:16.573Z,999.86
2019-06-20T08:06:16.582Z,999.79
2019-06-20T08:07:16.466Z,999.81
2019-06-20T08:08:16.576Z,999.75
2019-06-20T08:09:16.480Z,999.75
2019-06-20T08:10:16.579Z,999.74
2019-06-20T08:11:16.543Z,999.75
2019-06-20T08:12:16.520Z,999.74
2019-06-20T08:13:16.472Z,999.74
2019-06-20T08:14:16.586Z,999.74
2019-06-20T08:15:16.525Z,999.76
2019-06-20T08:16:16.516Z,999.73
2019-06-20T08:17:16.520Z,999.75
2019-06-20T08:18:16.500Z,999.73
2019-06-20T08:19:16.537Z,999.74
2019-06-20T08:20:16.594Z,999.76
2019-06-20T08:21:16.609Z,999.77
2019-06-20T08:22:16.507Z,999.79
2019-06-20T08:23:16.602Z,999.77
2019-06-20T08:24:16.563Z,999.74
2019-06-20T08:25:16.600Z,999.78
2019-06-20T08:26:16.609Z,999.80
2019-06-20T08:27:16.543Z,999.77
2019-06-20T08:28:16.608Z,999.81
2019-06-20T08:29:21.213Z,999.80
2019-06-20T08:30:16.685Z,999.78
2019-06-20T08:31:16.617Z,999.80
2019-06-20T08:32:16.624Z,999.80
2019-06-20T08:33:16.559Z,999.78
2019-06-20T08:34:16.615Z,999.74
2019-06-20T08:35:16.633Z,999.76
2019-06-20T08:36:16.548Z,999.76
2019-06-20T08:37:16.547Z,999.79
2019-06-20T08:38:16.631Z,999.81
2019-06-20T08:39:16.635Z,999.80
2019-06-20T08:40:16.550Z,999.88
2019-06-20T08:41:16.547Z,999.80
2019-06-20T08:42:16.619Z,999.84
2019-06-20T08:43:16.636Z,999.86
2019-06-20T08:44:16.549Z,999.88
2019-06-20T08:45:16.632Z,999.87
2019-06-20T08:46:16.559Z,999.90
2019-06-20T08:47:16.626Z,999.85
2019-06-20T08:48:16.569Z,999.85
2019-06-20T08:49:16.620Z,999.83
2019-06-20T08:50:16.559Z,999.84
2019-06-20T08:51:16.554Z,999.87
2019-06-20T08:52:16.663Z,999.89
2019-06-20T08:53:16.628Z,999.93
2019-06-20T08:54:16.582Z,999.95
2019-06-20T08:55:16.622Z,999.95
2019-06-20T08:56:16.524Z,1000.00
2019-06-20T08:57:16.613Z,999.95
2019-06-20T08:58:16.557Z,999.93
2019-06-20T08:59:24.249Z,999.94
2019-06-20T09:00:16.622Z,999.91
2019-06-20T09:01:16.504Z,999.89
2019-06-20T09:02:16.566Z,999.89
2019-06-20T09:03:16.561Z,999.92
2019-06-20T09:04:16.567Z,999.88
2019-06-20T09:05:16.571Z,999.79
2019-06-20T09:06:16.600Z,999.77
2019-06-20T09:07:16.641Z,999.78
2019-06-20T09:08:16.644Z,999.79
2019-06-20T09:09:16.575Z,999.75
2019-06-20T09:10:16.678Z,999.81
2019-06-20T09:11:16.643Z,999.79
2019-06-20T09:12:16.572Z,999.81
2019-06-20T09:13:16.677Z,999.83
2019-06-20T09:14:16.571Z,999.87
2019-06-20T09:15:16.650Z,999.89
2019-06-20T09:16:24.452Z,999.91
2019-06-20T09:17:16.646Z,999.93
2019-06-20T09:18:16.671Z,999.92
2019-06-20T09:19:16.586Z,999.94
2019-06-20T09:20:16.651Z,999.90
2019-06-20T09:21:16.649Z,999.93
2019-06-20T09:22:16.595Z,999.85
2019-06-20T09:23:16.705Z,999.87
2019-06-20T09:24:16.650Z,999.88
2019-06-20T09:25:16.528Z,999.91
2019-06-20T09:26:16.565Z,999.94
2019-06-20T09:27:16.641Z,1000.01
2019-06-20T09:28:16.544Z,999.93
2019-06-20T09:29:16.646Z,999.96
2019-06-20T09:30:16.592Z,999.94
2019-06-20T09:31:16.644Z,999.90
2019-06-20T09:32:16.551Z,999.88
2019-06-20T09:33:16.590Z,999.94
2019-06-20T09:34:16.572Z,999.94
2019-06-20T09:35:16.653Z,1000.00
2019-06-20T09:36:16.554Z,1000.00
2019-06-20T09:37:16.595Z,1000.01
2019-06-20T09:38:16.587Z,1000.06
2019-06-20T09:39:16.579Z,1000.02
2019-06-20T09:40:16.595Z,1000.03
2019-06-20T09:41:16.577Z,1000.04
2019-06-20T09:42:16.656Z,1000.04
2019-06-20T09:43:27.082Z,1000.02
2019-06-20T09:44:16.662Z,1000.02
2019-06-20T09:45:16.595Z,1000.01
2019-06-20T09:46:16.658Z,999.98
2019-06-20T09:47:16.546Z,1000.04
2019-06-20T09:48:16.631Z,1000.01
2019-06-20T09:49:16.593Z,999.98
2019-06-20T09:50:16.538Z,999.98
2019-06-20T09:51:16.622Z,999.99
2019-06-20T09:52:16.657Z,1000.00
2019-06-20T09:53:16.607Z,1000.01
2019-06-20T09:54:16.575Z,1000.04
2019-06-20T09:55:16.590Z,1000.00
2019-06-20T09:56:16.665Z,1000.00
2019-06-20T09:57:16.600Z,1000.01
2019-06-20T09:58:16.585Z,1000.03
2019-06-20T09:59:27.157Z,999.99
2019-06-20T10:00:16.666Z,999.94
2019-06-20T10:01:16.592Z,1000.05
2019-06-20T10:02:16.670Z,1000.06
2019-06-20T10:03:16.585Z,1000.10
2019-06-20T10:04:16.603Z,1000.12
2019-06-20T10:05:16.609Z,1000.13
2019-06-20T10:06:16.688Z,1000.10
2019-06-20T10:07:16.684Z,1000.13
2019-06-20T10:08:16.686Z,1000.14
2019-06-20T10:09:16.713Z,1000.19
2019-06-20T10:10:16.687Z,1000.20
2019-06-20T10:11:16.621Z,1000.20
2019-06-20T10:12:16.698Z,1000.21
2019-06-20T10:13:16.688Z,1000.25
2019-06-20T10:14:16.689Z,1000.25
2019-06-20T10:15:16.710Z,1000.28
2019-06-20T10:16:16.694Z,1000.22
2019-06-20T10:17:16.695Z,1000.21
2019-06-20T10:18:16.631Z,1000.17
2019-06-20T10:19:16.639Z,1000.22
2019-06-20T10:20:16.694Z,1000.24
2019-06-20T10:21:16.707Z,1000.31
2019-06-20T10:22:16.698Z,1000.29
2019-06-20T10:23:16.626Z,1000.31
2019-06-20T10:24:16.635Z,1000.21
2019-06-20T10:25:16.630Z,1000.25
2019-06-20T10:26:16.638Z,1000.30
2019-06-20T10:27:16.649Z,1000.25
2019-06-20T10:28:16.638Z,1000.30
2019-06-20T10:29:16.638Z,1000.36
2019-06-20T10:30:16.659Z,1000.34
2019-06-20T10:31:16.639Z,1000.33
2019-06-20T10:32:16.701Z,1000.37
2019-06-20T10:33:16.642Z,1000.35
2019-06-20T10:34:16.642Z,1000.39
2019-06-20T10:35:16.702Z,1000.37
2019-06-20T10:36:16.644Z,1000.40
2019-06-20T10:37:16.645Z,1000.40
2019-06-20T10:38:16.641Z,1000.38
2019-06-20T10:39:16.647Z,1000.45
2019-06-20T10:40:16.713Z,1000.40
2019-06-20T10:41:16.718Z,1000.39
2019-06-20T10:42:16.645Z,1000.43
2019-06-20T10:43:16.711Z,1000.41
2019-06-20T10:44:16.607Z,1000.41
2019-06-20T10:45:16.707Z,1000.37
2019-06-20T10:46:16.638Z,1000.32
2019-06-20T10:47:28.925Z,1000.39
2019-06-20T10:48:16.712Z,1000.37
2019-06-20T10:49:16.706Z,1000.43
2019-06-20T10:50:16.707Z,1000.39
2019-06-20T10:51:16.642Z,1000.43
2019-06-20T10:52:16.707Z,1000.45
2019-06-20T10:53:16.635Z,1000.40
2019-06-20T10:54:16.638Z,1000.43
2019-06-20T10:55:16.622Z,1000.42
2019-06-20T10:56:16.664Z,1000.44
2019-06-20T10:57:16.724Z,1000.50
2019-06-20T10:58:16.666Z,1000.42
2019-06-20T10:59:16.730Z,1000.47
2019-06-20T11:00:29.663Z,1000.45
2019-06-20T11:01:16.727Z,1000.45
2019-06-20T11:02:16.684Z,1000.44
2019-06-20T11:03:16.662Z,1000.52
2019-06-20T11:04:16.737Z,1000.48
2019-06-20T11:05:16.646Z,1000.50
2019-06-20T11:06:16.653Z,1000.51
2019-06-20T11:07:16.654Z,1000.51
2019-06-20T11:08:16.692Z,1000.49
2019-06-20T11:09:16.654Z,1000.58
2019-06-20T11:10:16.654Z,1000.52
2019-06-20T11:11:16.721Z,1000.52
2019-06-20T11:12:16.651Z,1000.55
2019-06-20T11:13:16.740Z,1000.53
2019-06-20T11:14:16.662Z,1000.48
2019-06-20T11:15:16.731Z,1000.53
2019-06-20T11:16:16.662Z,1000.52
2019-06-20T11:17:16.728Z,1000.50
2019-06-20T11:18:16.728Z,1000.47
2019-06-20T11:19:16.730Z,1000.47
2019-06-20T11:20:16.818Z,1000.48
2019-06-20T11:21:16.740Z,1000.45
2019-06-20T11:22:16.659Z,1000.46
2019-06-20T11:23:16.732Z,1000.41
2019-06-20T11:24:16.733Z,1000.44
2019-06-20T11:25:19.111Z,1000.41
2019-06-20T11:26:16.695Z,1000.40
2019-06-20T11:27:16.746Z,1000.37
2019-06-20T11:28:16.748Z,1000.39
2019-06-20T11:29:16.755Z,1000.37
2019-06-20T11:30:16.677Z,1000.47
2019-06-20T11:31:16.748Z,1000.44
2019-06-20T11:32:16.686Z,1000.46
2019-06-20T11:33:16.700Z,1000.40
2019-06-20T11:34:16.683Z,1000.48
2019-06-20T11:35:16.745Z,1000.44
2019-06-20T11:36:16.664Z,1000.49
2019-06-20T11:37:16.675Z,1000.41
2019-06-20T11:38:16.738Z,1000.47
2019-06-20T11:39:16.676Z,1000.49
2019-06-20T11:40:16.777Z,1000.38
2019-06-20T11:41:16.697Z,1000.39
2019-06-20T11:42:16.703Z,1000.36
2019-06-20T11:43:16.762Z,1000.38
2019-06-20T11:44:16.676Z,1000.38
2019-06-20T11:45:16.687Z,1000.40
2019-06-20T11:46:16.766Z,1000.36
2019-06-20T11:47:16.768Z,1000.36
2019-06-20T11:48:16.769Z,1000.34
2019-06-20T11:49:16.769Z,1000.30
2019-06-20T11:50:16.693Z,1000.34
2019-06-20T11:51:16.771Z,1000.30
2019-06-20T11:52:16.719Z,1000.32
2019-06-20T11:53:16.701Z,1000.33
2019-06-20T11:54:16.766Z,1000.39
2019-06-20T11:55:16.765Z,1000.38
2019-06-20T11:56:16.706Z,1000.36
2019-06-20T11:57:16.773Z,1000.35
2019-06-20T11:58:16.775Z,1000.32
2019-06-20T11:59:16.667Z,1000.28
2019-06-20T12:00:16.769Z,1000.31
2019-06-20T12:01:16.709Z,1000.30
2019-06-20T12:02:16.769Z,1000.24
2019-06-20T12:03:16.772Z,1000.22
2019-06-20T12:04:16.774Z,1000.23
2019-06-20T12:05:16.765Z,1000.15
2019-06-20T12:06:16.776Z,1000.23
2019-06-20T12:07:16.775Z,1000.19
2019-06-20T12:08:16.791Z,1000.20
2019-06-20T12:09:16.783Z,1000.19
2019-06-20T12:10:16.709Z,1000.21
2019-06-20T12:11:16.779Z,1000.23
2019-06-20T12:12:16.781Z,1000.19
2019-06-20T12:13:16.783Z,1000.21
2019-06-20T12:14:16.803Z,1000.23
2019-06-20T12:15:16.771Z,1000.17
2019-06-20T12:16:16.777Z,1000.14
2019-06-20T12:17:16.739Z,1000.12
2019-06-20T12:18:16.707Z,1000.16
2019-06-20T12:19:16.779Z,1000.12
2019-06-20T12:20:16.782Z,1000.08
2019-06-20T12:21:16.786Z,1000.09
2019-06-20T12:22:16.780Z,1000.08
2019-06-20T12:23:16.703Z,1000.05